CMB56 KECP-KCMH
Flight info
| Callsign | CMB56 |
|---|---|
| Flight time | 1h 28m |
| Altitude | 37000 |
| Route | OTK MCGNS SCRLT2 |
| Aircraft | A320/M-SDE3FGHIRWY/LB1 |
Departure
| Time | 2026-05-09 00:58 |
|---|---|
| Airport | Northwest Florida Beaches International Airport (KECP) |
Arrival
| Time | 2026-05-09 02:26 |
|---|---|
| Airport | John Glenn Columbus International Airport (KCMH) |
| Time | Latitude | Longitude | Altitude | Speed | Heading |
|---|---|---|---|---|---|
| 2026-05-09 00:37 | 30.34295 | -85.79338 | 66 ft | 0 kts | 335° |
| 2026-05-09 00:51 | 30.34302 | -85.79342 | 65 ft | 3 kts | 333° |
| 2026-05-09 00:51 | 30.34336 | -85.79364 | 59 ft | 6 kts | 330° |
| 2026-05-09 00:51 | 30.34373 | -85.79385 | 58 ft | 3 kts | 336° |
| 2026-05-09 00:52 | 30.34398 | -85.79395 | 66 ft | 5 kts | 346° |
| 2026-05-09 00:52 | 30.34427 | -85.79378 | 63 ft | 6 kts | 58° |
| 2026-05-09 00:52 | 30.34441 | -85.79334 | 66 ft | 7 kts | 71° |
| 2026-05-09 00:52 | 30.34459 | -85.79275 | 62 ft | 9 kts | 70° |
| 2026-05-09 00:53 | 30.34484 | -85.79200 | 65 ft | 11 kts | 69° |
| 2026-05-09 00:53 | 30.34512 | -85.79114 | 59 ft | 8 kts | 69° |
| 2026-05-09 00:53 | 30.34515 | -85.79103 | 62 ft | 0 kts | 69° |
| 2026-05-09 00:54 | 30.34517 | -85.79097 | 67 ft | 4 kts | 69° |
| 2026-05-09 00:54 | 30.34541 | -85.79029 | 62 ft | 11 kts | 61° |
| 2026-05-09 00:55 | 30.34589 | -85.79027 | 69 ft | 0 kts | 338° |
| 2026-05-09 00:56 | 30.34590 | -85.79027 | 66 ft | 1 kts | 338° |
| 2026-05-09 00:57 | 30.34749 | -85.79097 | 62 ft | 58 kts | 339° |
| 2026-05-09 00:57 | 30.35329 | -85.79345 | 67 ft | 117 kts | 340° |
| 2026-05-09 00:57 | 30.36236 | -85.79736 | 107 ft | 155 kts | 339° |
| 2026-05-09 00:57 | 30.37223 | -85.80180 | 664 ft | 151 kts | 339° |
| 2026-05-09 00:58 | 30.38210 | -85.80614 | 1225 ft | 152 kts | 340° |
| 2026-05-09 00:58 | 30.39198 | -85.81028 | 1778 ft | 151 kts | 340° |
| 2026-05-09 00:58 | 30.40197 | -85.81407 | 2204 ft | 157 kts | 350° |
| 2026-05-09 00:58 | 30.41356 | -85.81488 | 2382 ft | 178 kts | 1° |
| 2026-05-09 00:59 | 30.42677 | -85.81424 | 2587 ft | 201 kts | 2° |
| 2026-05-09 00:59 | 30.44154 | -85.81323 | 2799 ft | 225 kts | 2° |
| 2026-05-09 00:59 | 30.45775 | -85.81215 | 3119 ft | 248 kts | 2° |
| 2026-05-09 00:59 | 30.47568 | -85.81098 | 3628 ft | 265 kts | 2° |
| 2026-05-09 01:00 | 30.49430 | -85.80977 | 4426 ft | 271 kts | 2° |
| 2026-05-09 01:00 | 30.51324 | -85.80845 | 5239 ft | 276 kts | 2° |
| 2026-05-09 01:00 | 30.53252 | -85.80701 | 6029 ft | 280 kts | 2° |
| 2026-05-09 01:00 | 30.55212 | -85.80548 | 6802 ft | 284 kts | 2° |
| 2026-05-09 01:01 | 30.57192 | -85.80285 | 7549 ft | 290 kts | 14° |
| 2026-05-09 01:01 | 30.59117 | -85.79521 | 8281 ft | 295 kts | 18° |
| 2026-05-09 01:01 | 30.61058 | -85.78692 | 8993 ft | 299 kts | 19° |
| 2026-05-09 01:01 | 30.63018 | -85.77842 | 9679 ft | 302 kts | 19° |
| 2026-05-09 01:02 | 30.64978 | -85.76988 | 10278 ft | 311 kts | 19° |
| 2026-05-09 01:02 | 30.67079 | -85.76073 | 10442 ft | 334 kts | 18° |
| 2026-05-09 01:02 | 30.69327 | -85.75103 | 10575 ft | 355 kts | 18° |
| 2026-05-09 01:02 | 30.71686 | -85.74081 | 10958 ft | 368 kts | 18° |
| 2026-05-09 01:03 | 30.74101 | -85.73034 | 11580 ft | 372 kts | 18° |
| 2026-05-09 01:03 | 30.76539 | -85.71981 | 12193 ft | 376 kts | 17° |
| 2026-05-09 01:03 | 30.79008 | -85.70910 | 12801 ft | 381 kts | 17° |
| 2026-05-09 01:03 | 30.81473 | -85.69841 | 13389 ft | 385 kts | 17° |
| 2026-05-09 01:04 | 30.83994 | -85.68744 | 13961 ft | 389 kts | 17° |
| 2026-05-09 01:04 | 30.86544 | -85.67631 | 14519 ft | 394 kts | 17° |
| 2026-05-09 01:04 | 30.89125 | -85.66505 | 15060 ft | 398 kts | 17° |
| 2026-05-09 01:04 | 30.91732 | -85.65369 | 15582 ft | 402 kts | 16° |
| 2026-05-09 01:05 | 30.94373 | -85.64220 | 16100 ft | 406 kts | 16° |
| 2026-05-09 01:05 | 30.96667 | -85.63221 | 16539 ft | 410 kts | 16° |
| 2026-05-09 01:05 | 31.02033 | -85.60848 | 17599 ft | 416 kts | 16° |
| 2026-05-09 01:06 | 31.04744 | -85.59633 | 18126 ft | 419 kts | 16° |
| 2026-05-09 01:06 | 31.07476 | -85.58399 | 18654 ft | 423 kts | 16° |
| 2026-05-09 01:06 | 31.10231 | -85.57150 | 19182 ft | 427 kts | 16° |
| 2026-05-09 01:06 | 31.13008 | -85.55887 | 19711 ft | 430 kts | 16° |
| 2026-05-09 01:07 | 31.15803 | -85.54612 | 20236 ft | 433 kts | 16° |
| 2026-05-09 01:07 | 31.18580 | -85.53338 | 20756 ft | 436 kts | 16° |
| 2026-05-09 01:07 | 31.21412 | -85.52039 | 21281 ft | 438 kts | 16° |
| 2026-05-09 01:07 | 31.24253 | -85.50736 | 21807 ft | 440 kts | 16° |
| 2026-05-09 01:08 | 31.27104 | -85.49417 | 22333 ft | 441 kts | 16° |
| 2026-05-09 01:08 | 31.29956 | -85.48092 | 22859 ft | 442 kts | 16° |
| 2026-05-09 01:08 | 31.32816 | -85.46756 | 23384 ft | 443 kts | 16° |
| 2026-05-09 01:08 | 31.35679 | -85.45415 | 23910 ft | 443 kts | 16° |
| 2026-05-09 01:09 | 31.38549 | -85.44098 | 24422 ft | 444 kts | 15° |
| 2026-05-09 01:09 | 31.41470 | -85.42806 | 24564 ft | 454 kts | 15° |
| 2026-05-09 01:09 | 31.44466 | -85.41511 | 24696 ft | 463 kts | 14° |
| 2026-05-09 01:09 | 31.47478 | -85.40222 | 24826 ft | 472 kts | 14° |
| 2026-05-09 01:10 | 31.50583 | -85.38891 | 25058 ft | 477 kts | 14° |
| 2026-05-09 01:10 | 31.53706 | -85.37541 | 25373 ft | 480 kts | 15° |
| 2026-05-09 01:10 | 31.56839 | -85.36171 | 25696 ft | 482 kts | 15° |
| 2026-05-09 01:10 | 31.59989 | -85.34782 | 26020 ft | 484 kts | 15° |
| 2026-05-09 01:11 | 31.63147 | -85.33384 | 26349 ft | 486 kts | 15° |
| 2026-05-09 01:11 | 31.66319 | -85.31981 | 26669 ft | 489 kts | 15° |
| 2026-05-09 01:11 | 31.69509 | -85.30573 | 27006 ft | 490 kts | 15° |
| 2026-05-09 01:11 | 31.72709 | -85.29161 | 27335 ft | 492 kts | 15° |
| 2026-05-09 01:12 | 31.75920 | -85.27747 | 27663 ft | 494 kts | 15° |
| 2026-05-09 01:12 | 31.79142 | -85.26328 | 27974 ft | 496 kts | 15° |
| 2026-05-09 01:12 | 31.82377 | -85.24904 | 28297 ft | 497 kts | 14° |
| 2026-05-09 01:12 | 31.85618 | -85.23478 | 28669 ft | 497 kts | 15° |
| 2026-05-09 01:13 | 31.88807 | -85.22072 | 29122 ft | 495 kts | 14° |
| 2026-05-09 01:13 | 31.92027 | -85.20648 | 29550 ft | 494 kts | 14° |
| 2026-05-09 01:13 | 31.95239 | -85.19224 | 29972 ft | 493 kts | 14° |
| 2026-05-09 01:13 | 31.98441 | -85.17805 | 30406 ft | 491 kts | 14° |
| 2026-05-09 01:14 | 32.01634 | -85.16389 | 30820 ft | 490 kts | 14° |
| 2026-05-09 01:14 | 32.04833 | -85.14974 | 31142 ft | 492 kts | 13° |
| 2026-05-09 01:14 | 32.08036 | -85.13556 | 31470 ft | 492 kts | 13° |
| 2026-05-09 01:14 | 32.11241 | -85.12134 | 31820 ft | 492 kts | 13° |
| 2026-05-09 01:15 | 32.14445 | -85.10709 | 32193 ft | 492 kts | 13° |
| 2026-05-09 01:15 | 32.17646 | -85.09282 | 32562 ft | 491 kts | 13° |
| 2026-05-09 01:15 | 32.20839 | -85.07860 | 32944 ft | 490 kts | 12° |
| 2026-05-09 01:15 | 32.23988 | -85.06456 | 33312 ft | 490 kts | 12° |
| 2026-05-09 01:16 | 32.27169 | -85.05038 | 33667 ft | 489 kts | 12° |
| 2026-05-09 01:16 | 32.30352 | -85.03618 | 34025 ft | 488 kts | 12° |
| 2026-05-09 01:16 | 32.33526 | -85.02204 | 34388 ft | 487 kts | 11° |
| 2026-05-09 01:17 | 32.39854 | -84.99384 | 35053 ft | 485 kts | 11° |
| 2026-05-09 01:17 | 32.43009 | -84.97974 | 35368 ft | 484 kts | 11° |
| 2026-05-09 01:17 | 32.46163 | -84.96561 | 35653 ft | 484 kts | 10° |
| 2026-05-09 01:17 | 32.49268 | -84.95170 | 35903 ft | 484 kts | 10° |
| 2026-05-09 01:18 | 32.52416 | -84.93759 | 36149 ft | 484 kts | 10° |
| 2026-05-09 01:18 | 32.55558 | -84.92348 | 36395 ft | 484 kts | 10° |
| 2026-05-09 01:18 | 32.58709 | -84.90929 | 36646 ft | 483 kts | 10° |
| 2026-05-09 01:18 | 32.61848 | -84.89513 | 36891 ft | 483 kts | 9° |
| 2026-05-09 01:19 | 32.64988 | -84.88097 | 37004 ft | 483 kts | 9° |
| 2026-05-09 01:19 | 32.68145 | -84.86676 | 37028 ft | 486 kts | 9° |
| 2026-05-09 01:19 | 32.74462 | -84.83828 | 37030 ft | 486 kts | 9° |
| 2026-05-09 01:20 | 32.80744 | -84.80995 | 37037 ft | 486 kts | 9° |
| 2026-05-09 01:20 | 32.87076 | -84.78136 | 37040 ft | 487 kts | 9° |
| 2026-05-09 01:21 | 32.93415 | -84.75271 | 37041 ft | 488 kts | 9° |
| 2026-05-09 01:21 | 32.99762 | -84.72390 | 37036 ft | 488 kts | 9° |
| 2026-05-09 01:22 | 33.06111 | -84.69504 | 37032 ft | 489 kts | 9° |
| 2026-05-09 01:22 | 33.12423 | -84.66634 | 37029 ft | 489 kts | 9° |
| 2026-05-09 01:23 | 33.18792 | -84.63736 | 37037 ft | 490 kts | 9° |
| 2026-05-09 01:23 | 33.25167 | -84.60832 | 37040 ft | 491 kts | 9° |
| 2026-05-09 01:24 | 33.31552 | -84.57916 | 37050 ft | 491 kts | 9° |
| 2026-05-09 01:24 | 33.37943 | -84.54988 | 37049 ft | 492 kts | 9° |
| 2026-05-09 01:25 | 33.44287 | -84.52081 | 37055 ft | 492 kts | 9° |
| 2026-05-09 01:25 | 33.50679 | -84.49148 | 37059 ft | 493 kts | 9° |
| 2026-05-09 01:26 | 33.57085 | -84.46202 | 37062 ft | 493 kts | 9° |
| 2026-05-09 01:26 | 33.62405 | -84.43751 | 37058 ft | 493 kts | 9° |
| 2026-05-09 01:27 | 33.69884 | -84.40390 | 37055 ft | 491 kts | 7° |
| 2026-05-09 01:27 | 33.76304 | -84.37604 | 37054 ft | 491 kts | 7° |
| 2026-05-09 01:28 | 33.82685 | -84.34823 | 37048 ft | 492 kts | 7° |
| 2026-05-09 01:28 | 33.88726 | -84.32160 | 37052 ft | 492 kts | 8° |
| 2026-05-09 01:29 | 33.95151 | -84.29305 | 37047 ft | 492 kts | 8° |
| 2026-05-09 01:29 | 34.01500 | -84.26482 | 37052 ft | 492 kts | 7° |
| 2026-05-09 01:30 | 34.07195 | -84.23952 | 37049 ft | 493 kts | 7° |
| 2026-05-09 01:30 | 34.13631 | -84.21099 | 37051 ft | 493 kts | 7° |
| 2026-05-09 01:31 | 34.19777 | -84.18371 | 37052 ft | 493 kts | 7° |
| 2026-05-09 01:31 | 34.25757 | -84.15703 | 37052 ft | 493 kts | 7° |
| 2026-05-09 01:32 | 34.32147 | -84.12848 | 37050 ft | 493 kts | 7° |
| 2026-05-09 01:32 | 34.37540 | -84.10435 | 37050 ft | 493 kts | 7° |
| 2026-05-09 01:33 | 34.45019 | -84.07091 | 37053 ft | 493 kts | 7° |
| 2026-05-09 01:33 | 34.51465 | -84.04199 | 37057 ft | 495 kts | 7° |
| 2026-05-09 01:34 | 34.56823 | -84.01790 | 37051 ft | 495 kts | 7° |
| 2026-05-09 01:34 | 34.63280 | -83.98879 | 37055 ft | 495 kts | 7° |
| 2026-05-09 01:35 | 34.70778 | -83.95491 | 37065 ft | 495 kts | 7° |
| 2026-05-09 01:35 | 34.77237 | -83.92580 | 37058 ft | 495 kts | 7° |
| 2026-05-09 01:36 | 34.82606 | -83.90162 | 37065 ft | 496 kts | 7° |
| 2026-05-09 01:36 | 34.89088 | -83.87224 | 37069 ft | 497 kts | 7° |
| 2026-05-09 01:37 | 34.95565 | -83.84281 | 37072 ft | 497 kts | 7° |
| 2026-05-09 01:37 | 35.02007 | -83.81349 | 37072 ft | 497 kts | 6° |
| 2026-05-09 01:38 | 35.08492 | -83.78400 | 37070 ft | 498 kts | 6° |
| 2026-05-09 01:38 | 35.14991 | -83.75438 | 37067 ft | 499 kts | 6° |
| 2026-05-09 01:39 | 35.21484 | -83.72472 | 37059 ft | 499 kts | 6° |
| 2026-05-09 01:39 | 35.27990 | -83.69487 | 37057 ft | 499 kts | 6° |
| 2026-05-09 01:40 | 35.34448 | -83.66520 | 37057 ft | 499 kts | 6° |
| 2026-05-09 01:40 | 35.40962 | -83.63536 | 37058 ft | 500 kts | 6° |
| 2026-05-09 01:41 | 35.47486 | -83.60535 | 37064 ft | 501 kts | 6° |
| 2026-05-09 01:41 | 35.54014 | -83.57520 | 37058 ft | 501 kts | 6° |
| 2026-05-09 01:42 | 35.60544 | -83.54509 | 37056 ft | 502 kts | 6° |
| 2026-05-09 01:42 | 35.67082 | -83.51487 | 37049 ft | 502 kts | 6° |
| 2026-05-09 01:43 | 35.73577 | -83.48480 | 37041 ft | 502 kts | 6° |
| 2026-05-09 01:43 | 35.80108 | -83.45442 | 37028 ft | 502 kts | 6° |
| 2026-05-09 01:44 | 35.86642 | -83.42407 | 37024 ft | 502 kts | 6° |
| 2026-05-09 01:44 | 35.93173 | -83.39369 | 37021 ft | 502 kts | 6° |
| 2026-05-09 01:45 | 35.99660 | -83.36344 | 37017 ft | 501 kts | 6° |
| 2026-05-09 01:45 | 36.06189 | -83.33288 | 37017 ft | 502 kts | 6° |
| 2026-05-09 01:46 | 36.12722 | -83.30228 | 37018 ft | 503 kts | 6° |
| 2026-05-09 01:46 | 36.19259 | -83.27159 | 37018 ft | 502 kts | 6° |
| 2026-05-09 01:47 | 36.25751 | -83.24110 | 37021 ft | 503 kts | 6° |
| 2026-05-09 01:47 | 36.32289 | -83.21033 | 37025 ft | 503 kts | 6° |
| 2026-05-09 01:48 | 36.38827 | -83.17950 | 37024 ft | 503 kts | 6° |
| 2026-05-09 01:48 | 36.45368 | -83.14862 | 37026 ft | 503 kts | 6° |
| 2026-05-09 01:49 | 36.51907 | -83.11763 | 37028 ft | 503 kts | 6° |
| 2026-05-09 01:49 | 36.58446 | -83.08665 | 37036 ft | 502 kts | 6° |
| 2026-05-09 01:50 | 36.64930 | -83.05594 | 37042 ft | 502 kts | 6° |
| 2026-05-09 01:50 | 36.71456 | -83.02485 | 37033 ft | 502 kts | 6° |
| 2026-05-09 01:51 | 36.77969 | -82.99383 | 37036 ft | 501 kts | 6° |
| 2026-05-09 01:51 | 36.84485 | -82.96270 | 37033 ft | 501 kts | 6° |
| 2026-05-09 01:52 | 36.90997 | -82.93152 | 37032 ft | 501 kts | 6° |
| 2026-05-09 01:52 | 36.97458 | -82.90061 | 37028 ft | 501 kts | 6° |
| 2026-05-09 01:53 | 37.03962 | -82.86934 | 37026 ft | 500 kts | 6° |
| 2026-05-09 01:53 | 37.10452 | -82.83805 | 37037 ft | 500 kts | 6° |
| 2026-05-09 01:54 | 37.16941 | -82.80674 | 37039 ft | 499 kts | 6° |
| 2026-05-09 01:54 | 37.23427 | -82.77544 | 37032 ft | 499 kts | 6° |
| 2026-05-09 01:55 | 37.29856 | -82.74437 | 37025 ft | 499 kts | 6° |
| 2026-05-09 01:55 | 37.36330 | -82.71291 | 37027 ft | 498 kts | 6° |
| 2026-05-09 01:56 | 37.42784 | -82.68161 | 37026 ft | 497 kts | 6° |
| 2026-05-09 01:56 | 37.49235 | -82.65034 | 37012 ft | 497 kts | 6° |
| 2026-05-09 01:57 | 37.55635 | -82.61917 | 37007 ft | 496 kts | 6° |
| 2026-05-09 01:57 | 37.62071 | -82.58765 | 37011 ft | 495 kts | 6° |
| 2026-05-09 01:58 | 37.68488 | -82.55623 | 37011 ft | 495 kts | 6° |
| 2026-05-09 01:58 | 37.74907 | -82.52475 | 37003 ft | 494 kts | 6° |
| 2026-05-09 01:59 | 37.81268 | -82.49354 | 37002 ft | 494 kts | 6° |
| 2026-05-09 01:59 | 37.87664 | -82.46201 | 37003 ft | 493 kts | 6° |
| 2026-05-09 02:00 | 37.94037 | -82.43058 | 36434 ft | 490 kts | 6° |
| 2026-05-09 02:00 | 37.97209 | -82.41491 | 35818 ft | 490 kts | 6° |
| 2026-05-09 02:00 | 38.00399 | -82.39920 | 35098 ft | 493 kts | 6° |
| 2026-05-09 02:01 | 38.03610 | -82.38342 | 34348 ft | 497 kts | 6° |
| 2026-05-09 02:01 | 38.06832 | -82.36748 | 34029 ft | 498 kts | 6° |
| 2026-05-09 02:01 | 38.10032 | -82.35168 | 33785 ft | 502 kts | 7° |
| 2026-05-09 02:01 | 38.13295 | -82.33554 | 33536 ft | 503 kts | 7° |
| 2026-05-09 02:02 | 38.16552 | -82.31937 | 33281 ft | 502 kts | 7° |
| 2026-05-09 02:02 | 38.19808 | -82.30313 | 33026 ft | 502 kts | 8° |
| 2026-05-09 02:02 | 38.23056 | -82.28684 | 32777 ft | 502 kts | 8° |
| 2026-05-09 02:02 | 38.26300 | -82.27065 | 32524 ft | 500 kts | 8° |
| 2026-05-09 02:03 | 38.29540 | -82.25452 | 32268 ft | 500 kts | 8° |
| 2026-05-09 02:03 | 38.32772 | -82.23841 | 32016 ft | 498 kts | 8° |
| 2026-05-09 02:03 | 38.35994 | -82.22237 | 31768 ft | 497 kts | 9° |
| 2026-05-09 02:03 | 38.39164 | -82.20655 | 31524 ft | 495 kts | 9° |
| 2026-05-09 02:04 | 38.42364 | -82.19053 | 31269 ft | 494 kts | 9° |
| 2026-05-09 02:04 | 38.45575 | -82.17639 | 31017 ft | 481 kts | 2° |
| 2026-05-09 02:04 | 38.48799 | -82.16861 | 30771 ft | 464 kts | 353° |
| 2026-05-09 02:04 | 38.51971 | -82.16701 | 30516 ft | 449 kts | 345° |
| 2026-05-09 02:05 | 38.55025 | -82.17088 | 30268 ft | 436 kts | 340° |
| 2026-05-09 02:05 | 38.58020 | -82.17658 | 30026 ft | 435 kts | 340° |
| 2026-05-09 02:05 | 38.61008 | -82.18216 | 29767 ft | 433 kts | 340° |
| 2026-05-09 02:05 | 38.63936 | -82.18757 | 29408 ft | 428 kts | 340° |
| 2026-05-09 02:06 | 38.66866 | -82.19293 | 28856 ft | 423 kts | 341° |
| 2026-05-09 02:06 | 38.69763 | -82.19829 | 28313 ft | 418 kts | 341° |
| 2026-05-09 02:06 | 38.72634 | -82.20360 | 27767 ft | 414 kts | 341° |
| 2026-05-09 02:07 | 38.78281 | -82.21409 | 26704 ft | 406 kts | 342° |
| 2026-05-09 02:07 | 38.81067 | -82.21931 | 26182 ft | 402 kts | 342° |
| 2026-05-09 02:07 | 38.83819 | -82.22448 | 25658 ft | 398 kts | 342° |
| 2026-05-09 02:07 | 38.86551 | -82.22964 | 25144 ft | 395 kts | 342° |
| 2026-05-09 02:08 | 38.89221 | -82.23469 | 24637 ft | 392 kts | 343° |
| 2026-05-09 02:08 | 38.91887 | -82.23971 | 24408 ft | 378 kts | 343° |
| 2026-05-09 02:08 | 38.94424 | -82.24436 | 24197 ft | 358 kts | 342° |
| 2026-05-09 02:08 | 38.96831 | -82.24876 | 23833 ft | 343 kts | 342° |
| 2026-05-09 02:09 | 38.99161 | -82.25312 | 23225 ft | 336 kts | 342° |
| 2026-05-09 02:09 | 39.01459 | -82.25751 | 22542 ft | 331 kts | 342° |
| 2026-05-09 02:09 | 39.03724 | -82.26189 | 21871 ft | 327 kts | 342° |
| 2026-05-09 02:09 | 39.05967 | -82.26623 | 21169 ft | 324 kts | 342° |
| 2026-05-09 02:10 | 39.08186 | -82.27051 | 20518 ft | 321 kts | 342° |
| 2026-05-09 02:10 | 39.10379 | -82.27473 | 19846 ft | 317 kts | 342° |
| 2026-05-09 02:10 | 39.12520 | -82.27882 | 19187 ft | 314 kts | 343° |
| 2026-05-09 02:10 | 39.14669 | -82.28294 | 18526 ft | 311 kts | 343° |
| 2026-05-09 02:11 | 39.16797 | -82.28698 | 17868 ft | 308 kts | 343° |
| 2026-05-09 02:11 | 39.18905 | -82.29094 | 17222 ft | 304 kts | 343° |
| 2026-05-09 02:11 | 39.20990 | -82.29486 | 16576 ft | 302 kts | 344° |
| 2026-05-09 02:11 | 39.23057 | -82.29879 | 15878 ft | 300 kts | 344° |
| 2026-05-09 02:12 | 39.25112 | -82.30271 | 15330 ft | 295 kts | 344° |
| 2026-05-09 02:12 | 39.27107 | -82.30649 | 14900 ft | 294 kts | 344° |
| 2026-05-09 02:12 | 39.29137 | -82.31039 | 14464 ft | 296 kts | 344° |
| 2026-05-09 02:12 | 39.31170 | -82.31431 | 14112 ft | 296 kts | 345° |
| 2026-05-09 02:13 | 39.33209 | -82.31822 | 13698 ft | 296 kts | 345° |
| 2026-05-09 02:13 | 39.35251 | -82.32213 | 13258 ft | 298 kts | 345° |
| 2026-05-09 02:13 | 39.37309 | -82.32604 | 12876 ft | 298 kts | 345° |
| 2026-05-09 02:13 | 39.39365 | -82.32989 | 12541 ft | 296 kts | 346° |
| 2026-05-09 02:14 | 39.41418 | -82.33379 | 12090 ft | 298 kts | 346° |
| 2026-05-09 02:14 | 39.43438 | -82.33764 | 11628 ft | 292 kts | 346° |
| 2026-05-09 02:14 | 39.45440 | -82.34145 | 11066 ft | 288 kts | 346° |
| 2026-05-09 02:14 | 39.47368 | -82.34508 | 10632 ft | 280 kts | 346° |
| 2026-05-09 02:15 | 39.49252 | -82.34932 | 10224 ft | 269 kts | 339° |
| 2026-05-09 02:15 | 39.50954 | -82.35822 | 10025 ft | 271 kts | 325° |
| 2026-05-09 02:15 | 39.52548 | -82.37227 | 10025 ft | 281 kts | 319° |
| 2026-05-09 02:15 | 39.54136 | -82.38734 | 10027 ft | 284 kts | 319° |
| 2026-05-09 02:16 | 39.55739 | -82.40238 | 10024 ft | 285 kts | 319° |
| 2026-05-09 02:16 | 39.57340 | -82.41740 | 10024 ft | 285 kts | 319° |
| 2026-05-09 02:16 | 39.58948 | -82.43253 | 10024 ft | 285 kts | 319° |
| 2026-05-09 02:16 | 39.60532 | -82.44747 | 9851 ft | 286 kts | 319° |
| 2026-05-09 02:17 | 39.62141 | -82.46269 | 9344 ft | 287 kts | 319° |
| 2026-05-09 02:17 | 39.63750 | -82.47797 | 8713 ft | 287 kts | 319° |
| 2026-05-09 02:17 | 39.65362 | -82.49326 | 8039 ft | 287 kts | 319° |
| 2026-05-09 02:17 | 39.66963 | -82.50841 | 7614 ft | 279 kts | 319° |
| 2026-05-09 02:18 | 39.68528 | -82.52321 | 7452 ft | 279 kts | 319° |
| 2026-05-09 02:18 | 39.70091 | -82.53803 | 7233 ft | 279 kts | 319° |
| 2026-05-09 02:18 | 39.71659 | -82.55288 | 7019 ft | 278 kts | 319° |
| 2026-05-09 02:18 | 39.73245 | -82.56730 | 6788 ft | 278 kts | 321° |
| 2026-05-09 02:19 | 39.74815 | -82.58107 | 6576 ft | 275 kts | 321° |
| 2026-05-09 02:19 | 39.76407 | -82.59490 | 6354 ft | 275 kts | 321° |
| 2026-05-09 02:19 | 39.77992 | -82.60867 | 6139 ft | 274 kts | 321° |
| 2026-05-09 02:19 | 39.79571 | -82.62243 | 5922 ft | 272 kts | 321° |
| 2026-05-09 02:20 | 39.81250 | -82.63407 | 5703 ft | 276 kts | 336° |
| 2026-05-09 02:20 | 39.83136 | -82.63951 | 5487 ft | 280 kts | 352° |
| 2026-05-09 02:20 | 39.85051 | -82.64141 | 5370 ft | 270 kts | 352° |
| 2026-05-09 02:20 | 39.86869 | -82.64323 | 5259 ft | 255 kts | 352° |
| 2026-05-09 02:21 | 39.88578 | -82.64494 | 5148 ft | 240 kts | 351° |
| 2026-05-09 02:21 | 39.90205 | -82.64670 | 5040 ft | 236 kts | 348° |
| 2026-05-09 02:21 | 39.91757 | -82.65176 | 4829 ft | 225 kts | 338° |
| 2026-05-09 02:21 | 39.93228 | -82.65789 | 4514 ft | 218 kts | 338° |
| 2026-05-09 02:22 | 39.94623 | -82.66365 | 4239 ft | 202 kts | 338° |
| 2026-05-09 02:22 | 39.95907 | -82.67030 | 3978 ft | 194 kts | 323° |
| 2026-05-09 02:22 | 39.96876 | -82.68138 | 3740 ft | 180 kts | 304° |
| 2026-05-09 02:22 | 39.97572 | -82.69468 | 3572 ft | 178 kts | 301° |
| 2026-05-09 02:23 | 39.98142 | -82.70867 | 3298 ft | 172 kts | 285° |
| 2026-05-09 02:23 | 39.98298 | -82.72375 | 3082 ft | 160 kts | 273° |
| 2026-05-09 02:23 | 39.98375 | -82.73753 | 2856 ft | 147 kts | 272° |
| 2026-05-09 02:23 | 39.98451 | -82.75047 | 2674 ft | 144 kts | 272° |
| 2026-05-09 02:24 | 39.98526 | -82.76357 | 2476 ft | 146 kts | 271° |
| 2026-05-09 02:24 | 39.98603 | -82.77677 | 2291 ft | 147 kts | 271° |
| 2026-05-09 02:24 | 39.98680 | -82.79024 | 2093 ft | 150 kts | 272° |
| 2026-05-09 02:24 | 39.98762 | -82.80388 | 1893 ft | 152 kts | 273° |
| 2026-05-09 02:25 | 39.98837 | -82.81756 | 1692 ft | 149 kts | 276° |
| 2026-05-09 02:25 | 39.98912 | -82.83094 | 1553 ft | 147 kts | 277° |
| 2026-05-09 02:25 | 39.98981 | -82.84417 | 1344 ft | 147 kts | 277° |
| 2026-05-09 02:25 | 39.99057 | -82.85718 | 1166 ft | 146 kts | 279° |
| 2026-05-09 02:26 | 39.99137 | -82.87027 | 949 ft | 145 kts | 281° |
| 2026-05-09 02:26 | 39.99220 | -82.88257 | 826 ft | 117 kts | 274° |
| 2026-05-09 02:26 | 39.99267 | -82.89124 | 823 ft | 79 kts | 274° |
| 2026-05-09 02:26 | 39.99307 | -82.89628 | 826 ft | 37 kts | 268° |
| 2026-05-09 02:27 | 39.99320 | -82.89907 | 824 ft | 26 kts | 283° |
| 2026-05-09 02:27 | 39.99367 | -82.90087 | 824 ft | 17 kts | 299° |
| 2026-05-09 02:27 | 39.99418 | -82.90189 | 824 ft | 7 kts | 304° |
| 2026-05-09 02:27 | 39.99427 | -82.90208 | 824 ft | 0 kts | 304° |
| 2026-05-09 02:28 | 39.99435 | -82.90217 | 824 ft | 3 kts | 319° |
| 2026-05-09 02:29 | 39.99454 | -82.90226 | 823 ft | 2 kts | 350° |
| 2026-05-09 02:29 | 39.99461 | -82.90227 | 824 ft | 0 kts | 354° |
| 2026-05-09 02:29 | 39.99467 | -82.90226 | 824 ft | 2 kts | 5° |
| 2026-05-09 02:30 | 39.99499 | -82.90159 | 824 ft | 16 kts | 88° |
| 2026-05-09 02:30 | 39.99491 | -82.89985 | 825 ft | 19 kts | 93° |
| 2026-05-09 02:30 | 39.99480 | -82.89822 | 825 ft | 17 kts | 93° |
| 2026-05-09 02:30 | 39.99472 | -82.89661 | 825 ft | 22 kts | 94° |
| 2026-05-09 02:31 | 39.99459 | -82.89440 | 824 ft | 22 kts | 95° |
| 2026-05-09 02:31 | 39.99451 | -82.89264 | 825 ft | 14 kts | 92° |
| 2026-05-09 02:31 | 39.99495 | -82.89178 | 823 ft | 12 kts | 6° |
| 2026-05-09 02:31 | 39.99551 | -82.89118 | 825 ft | 13 kts | 83° |
| 2026-05-09 02:32 | 39.99546 | -82.88981 | 825 ft | 15 kts | 94° |
| 2026-05-09 02:32 | 39.99587 | -82.88893 | 825 ft | 11 kts | 12° |
| 2026-05-09 02:32 | 39.99608 | -82.88823 | 825 ft | 9 kts | 76° |
| 2026-05-09 02:32 | 39.99605 | -82.88727 | 825 ft | 11 kts | 96° |
| 2026-05-09 02:33 | 39.99597 | -82.88629 | 821 ft | 11 kts | 95° |
| 2026-05-09 02:33 | 39.99592 | -82.88514 | 825 ft | 10 kts | 85° |
| 2026-05-09 02:33 | 39.99625 | -82.88507 | 825 ft | 5 kts | 5° |
| 2026-05-09 02:33 | 39.99648 | -82.88505 | 825 ft | 0 kts | 4° |